createdAt,value
2019-06-07T00:00:32.182Z,11.93
2019-06-07T00:02:40.295Z,8.93
2019-06-07T00:05:10.007Z,12.23
2019-06-07T00:07:39.323Z,11.53
2019-06-07T00:10:09.510Z,8.90
2019-06-07T00:12:38.445Z,10.13
2019-06-07T00:15:11.699Z,9.77
2019-06-07T00:17:37.449Z,10.90
2019-06-07T00:20:08.497Z,10.93
2019-06-07T00:22:36.819Z,10.17
2019-06-07T00:25:05.906Z,11.83
2019-06-07T00:27:34.419Z,10.00
2019-06-07T00:30:29.733Z,9.00
2019-06-07T00:32:34.517Z,13.63
2019-06-07T00:35:03.638Z,15.13
2019-06-07T00:37:32.133Z,12.23
2019-06-07T00:40:13.893Z,9.57
2019-06-07T00:42:31.111Z,10.70
2019-06-07T00:44:59.490Z,9.13
2019-06-07T00:47:28.057Z,9.10
2019-06-07T00:49:56.436Z,8.13
2019-06-07T00:53:11.507Z,9.67
2019-06-07T00:54:55.654Z,10.93
2019-06-07T00:57:24.549Z,10.40
2019-06-07T00:59:53.446Z,9.83
2019-06-07T01:02:25.912Z,11.37
2019-06-07T01:04:52.451Z,9.00
2019-06-07T01:07:21.973Z,8.20
2019-06-07T01:09:51.262Z,11.13
2019-06-07T01:12:21.556Z,9.07
2019-06-07T01:14:50.339Z,11.20
2019-06-07T01:17:40.098Z,13.87
2019-06-07T01:19:55.504Z,11.77
2019-06-07T01:22:28.895Z,9.23
2019-06-07T01:24:54.248Z,11.73
2019-06-07T01:27:25.386Z,10.50
2019-06-07T01:29:53.254Z,10.47
2019-06-07T01:32:24.686Z,10.93
2019-06-07T01:34:52.001Z,12.13
2019-06-07T01:37:25.007Z,8.07
2019-06-07T01:39:51.066Z,10.60
2019-06-07T01:42:20.417Z,14.60
2019-06-07T01:44:49.725Z,10.07
2019-06-07T01:47:20.463Z,16.10
2019-06-07T01:49:48.698Z,8.57
2019-06-07T01:52:17.088Z,9.03
2019-06-07T01:54:58.614Z,10.70
2019-06-07T01:57:36.208Z,16.90
2019-06-07T01:59:46.116Z,13.70
2019-06-07T02:02:14.490Z,8.83
2019-06-07T02:04:43.003Z,12.73
2019-06-07T02:07:11.468Z,10.90
2019-06-07T02:09:39.854Z,10.73
2019-06-07T02:12:25.054Z,15.63
2019-06-07T02:14:38.777Z,10.93
2019-06-07T02:17:07.257Z,13.70
2019-06-07T02:19:35.742Z,13.77
2019-06-07T02:22:04.275Z,13.07
2019-06-07T02:24:35.817Z,12.07
2019-06-07T02:27:03.155Z,16.57
2019-06-07T02:29:33.535Z,12.23
2019-06-07T02:32:02.106Z,15.87
2019-06-07T02:34:35.929Z,12.20
2019-06-07T02:37:01.087Z,14.63
2019-06-07T02:39:34.387Z,15.07
2019-06-07T02:42:00.157Z,12.60
2019-06-07T02:44:34.924Z,10.17
2019-06-07T02:46:59.012Z,10.90
2019-06-07T02:49:31.354Z,9.87
2019-06-07T02:51:57.867Z,10.90
2019-06-07T02:54:27.382Z,11.93
2019-06-07T02:56:58.947Z,8.90
2019-06-07T02:59:54.886Z,10.93
2019-06-07T03:01:57.722Z,12.47
2019-06-07T03:04:29.525Z,13.63
2019-06-07T03:06:58.985Z,14.37
2019-06-07T03:09:30.910Z,9.93
2019-06-07T03:12:00.998Z,12.37
2019-06-07T03:14:35.254Z,12.73
2019-06-07T03:17:12.102Z,9.57
2019-06-07T03:19:43.774Z,9.60
2019-06-07T03:22:12.274Z,12.10
2019-06-07T03:24:44.190Z,11.87
2019-06-07T03:27:38.891Z,10.93
2019-06-07T03:29:44.848Z,11.13
2019-06-07T03:32:13.361Z,10.23
2019-06-07T03:34:43.723Z,13.37
2019-06-07T03:37:12.223Z,17.33
2019-06-07T03:39:41.154Z,15.10
2019-06-07T03:42:09.804Z,14.83
2019-06-07T03:44:41.343Z,14.73
2019-06-07T03:47:08.773Z,10.40
2019-06-07T03:49:41.706Z,10.50
2019-06-07T03:52:07.637Z,8.67
2019-06-07T03:54:39.405Z,12.17
2019-06-07T03:57:06.482Z,17.97
2019-06-07T03:59:38.599Z,12.93
2019-06-07T04:02:05.238Z,13.37
2019-06-07T04:04:36.983Z,12.93
2019-06-07T04:07:04.342Z,10.00
2019-06-07T04:09:35.656Z,14.47
2019-06-07T04:12:03.293Z,11.27
2019-06-07T04:14:32.874Z,13.07
2019-06-07T04:17:01.491Z,12.47
2019-06-07T04:19:32.307Z,13.53
2019-06-07T04:22:00.339Z,16.43
2019-06-07T04:24:28.814Z,18.87
2019-06-07T04:26:57.409Z,17.63
2019-06-07T04:29:33.123Z,17.23
2019-06-07T04:31:56.484Z,14.33
2019-06-07T04:34:24.993Z,18.33
2019-06-07T04:36:59.156Z,14.23
2019-06-07T04:39:24.565Z,10.77
2019-06-07T04:41:55.008Z,11.43
2019-06-07T04:44:24.881Z,12.87
2019-06-07T04:46:55.992Z,15.73
2019-06-07T04:49:24.972Z,11.27
2019-06-07T04:51:55.451Z,13.90
2019-06-07T04:54:24.183Z,14.50
2019-06-07T04:56:52.653Z,12.93
2019-06-07T05:00:00.973Z,9.80
2019-06-07T05:01:51.479Z,16.53
2019-06-07T05:04:20.285Z,9.87
2019-06-07T05:06:48.756Z,17.90
2019-06-07T05:09:17.335Z,10.33
2019-06-07T05:11:45.919Z,9.30
2019-06-07T05:14:14.339Z,16.03
2019-06-07T05:16:44.271Z,9.40
2019-06-07T05:19:13.193Z,8.77
2019-06-07T05:22:01.619Z,10.17
2019-06-07T05:24:12.289Z,8.40
2019-06-07T05:26:42.790Z,10.27
2019-06-07T05:29:11.283Z,10.00
2019-06-07T05:31:44.950Z,7.87
2019-06-07T05:34:11.471Z,9.07
2019-06-07T05:36:44.310Z,8.67
2019-06-07T05:39:10.211Z,9.80
2019-06-07T05:41:41.175Z,10.00
2019-06-07T05:44:12.693Z,9.20
2019-06-07T05:46:41.970Z,9.00
2019-06-07T05:49:09.591Z,7.70
2019-06-07T05:51:41.522Z,8.03
2019-06-07T05:54:08.413Z,9.07
2019-06-07T05:56:39.368Z,10.90
2019-06-07T05:59:07.329Z,9.10
2019-06-07T06:01:53.404Z,8.63
2019-06-07T06:04:06.356Z,8.43
2019-06-07T06:06:36.373Z,7.83
2019-06-07T06:09:13.920Z,7.73
2019-06-07T06:11:49.394Z,8.30
2019-06-07T06:14:08.326Z,8.67
2019-06-07T06:16:37.235Z,7.83
2019-06-07T06:19:05.856Z,8.90
2019-06-07T06:21:34.318Z,8.50
2019-06-07T06:24:03.003Z,7.77
2019-06-07T06:26:31.584Z,8.27
2019-06-07T06:29:00.054Z,8.40
2019-06-07T06:31:28.615Z,7.50
2019-06-07T06:33:57.094Z,8.03
2019-06-07T06:36:25.513Z,7.73
2019-06-07T06:38:54.106Z,8.10
2019-06-07T06:41:22.716Z,9.87
2019-06-07T06:43:52.655Z,9.90
2019-06-07T06:46:38.282Z,12.97
2019-06-07T06:48:55.296Z,8.13
2019-06-07T06:51:22.318Z,8.83
2019-06-07T06:53:52.568Z,8.57
2019-06-07T06:56:21.190Z,8.17
2019-06-07T06:59:27.255Z,8.53
2019-06-07T07:01:19.982Z,9.60
2019-06-07T07:04:07.316Z,7.53
2019-06-07T07:06:27.128Z,7.07
2019-06-07T07:08:53.422Z,7.20
2019-06-07T07:11:23.147Z,7.10
2019-06-07T07:13:56.342Z,7.30
2019-06-07T07:16:22.540Z,7.33
2019-06-07T07:18:54.339Z,6.93
2019-06-07T07:21:21.410Z,7.40
2019-06-07T07:24:14.755Z,8.53
2019-06-07T07:26:20.534Z,7.60
2019-06-07T07:28:51.770Z,7.17
2019-06-07T07:31:19.460Z,9.47
2019-06-07T07:36:37.457Z,7.63
2019-06-07T07:38:51.839Z,7.57
2019-06-07T07:41:19.140Z,8.13
2019-06-07T07:43:54.456Z,8.47
2019-06-07T07:46:28.956Z,9.50
2019-06-07T07:48:48.622Z,7.37
2019-06-07T07:51:17.731Z,10.47
2019-06-07T07:53:54.368Z,8.93
2019-06-07T07:56:16.618Z,7.40
2019-06-07T07:58:49.311Z,8.23
2019-06-07T08:01:15.539Z,8.17
2019-06-07T08:03:44.017Z,7.50
2019-06-07T08:06:12.591Z,7.37
2019-06-07T08:08:41.330Z,8.13
2019-06-07T08:11:09.796Z,9.40
2019-06-07T08:13:38.365Z,7.80
2019-06-07T08:16:14.100Z,7.50
2019-06-07T08:18:37.184Z,8.93
2019-06-07T08:21:23.686Z,7.60
2019-06-07T08:23:36.039Z,8.00
2019-06-07T08:26:04.460Z,8.47
2019-06-07T08:28:32.934Z,6.60
2019-06-07T08:31:06.743Z,7.50
2019-06-07T08:33:31.823Z,8.27
2019-06-07T08:36:14.092Z,6.43
2019-06-07T08:38:47.031Z,7.07
2019-06-07T08:41:11.057Z,7.67
2019-06-07T08:43:31.589Z,6.50
2019-06-07T08:46:06.852Z,7.07
2019-06-07T08:48:30.612Z,10.03
2019-06-07T08:51:06.314Z,6.90
2019-06-07T08:53:29.391Z,6.73
2019-06-07T08:56:05.628Z,6.40
2019-06-07T08:58:28.289Z,6.87
2019-06-07T09:01:03.897Z,5.20
2019-06-07T09:03:27.088Z,5.33
2019-06-07T09:05:57.175Z,12.77
2019-06-07T09:08:30.381Z,7.63
2019-06-07T09:10:58.779Z,5.70
2019-06-07T09:13:26.856Z,4.77
2019-06-07T09:15:57.760Z,5.83
2019-06-07T09:18:44.415Z,7.63
2019-06-07T09:20:59.283Z,5.40
2019-06-07T09:23:26.676Z,6.13
2019-06-07T09:26:04.832Z,4.97
2019-06-07T09:28:26.418Z,5.87
2019-06-07T09:30:57.107Z,5.67
2019-06-07T09:33:25.491Z,7.50
2019-06-07T09:35:54.315Z,5.80
2019-06-07T09:38:26.292Z,7.80
2019-06-07T09:40:53.519Z,4.70
2019-06-07T09:45:52.284Z,4.00
2019-06-07T09:49:01.479Z,4.07
2019-06-07T09:50:51.388Z,5.27
2019-06-07T09:53:23.107Z,4.40
2019-06-07T09:55:50.361Z,4.03
2019-06-07T09:58:50.423Z,4.97
2019-06-07T10:00:49.267Z,4.33
2019-06-07T10:03:22.360Z,5.33
2019-06-07T10:05:48.340Z,5.53
2019-06-07T10:09:31.608Z,4.20
2019-06-07T10:10:47.197Z,4.93
2019-06-07T10:13:15.709Z,5.00
2019-06-07T10:15:44.194Z,5.77
2019-06-07T10:18:12.693Z,4.87
2019-06-07T10:20:41.212Z,5.10
2019-06-07T10:23:10.178Z,4.73
2019-06-07T10:25:38.803Z,5.87
2019-06-07T10:28:08.237Z,6.13
2019-06-07T10:30:36.885Z,5.23
2019-06-07T10:33:06.859Z,5.87
2019-06-07T10:35:35.572Z,5.13
2019-06-07T10:38:04.562Z,3.80
2019-06-07T10:40:33.330Z,12.03
2019-06-07T10:43:02.928Z,4.03
2019-06-07T10:45:31.737Z,4.30
2019-06-07T10:48:01.499Z,5.13
2019-06-07T10:50:30.466Z,4.17
2019-06-07T10:52:59.035Z,5.00
2019-06-07T10:55:27.502Z,6.47
2019-06-07T10:57:56.084Z,5.70
2019-06-07T11:00:24.973Z,5.57
2019-06-07T11:02:55.286Z,3.60
2019-06-07T11:05:23.971Z,4.77
2019-06-07T11:07:52.513Z,4.37
2019-06-07T11:10:21.016Z,4.10
2019-06-07T11:12:49.649Z,7.33
2019-06-07T11:15:18.201Z,4.70
2019-06-07T11:17:46.871Z,4.20
2019-06-07T11:20:18.520Z,6.50
2019-06-07T11:22:47.210Z,5.60
2019-06-07T11:25:15.878Z,4.60
2019-06-07T11:27:44.480Z,4.87
2019-06-07T11:30:14.625Z,4.43
2019-06-07T11:32:43.302Z,5.60
2019-06-07T11:35:15.322Z,5.80
2019-06-07T11:37:43.879Z,10.40
2019-06-07T11:40:35.521Z,5.17
2019-06-07T11:42:43.285Z,5.00
2019-06-07T11:45:12.914Z,4.00
2019-06-07T11:47:42.654Z,4.43
2019-06-07T11:50:11.950Z,3.93
2019-06-07T11:52:40.683Z,5.20
2019-06-07T11:55:11.371Z,4.77
2019-06-07T11:57:40.026Z,3.40
2019-06-07T12:00:11.702Z,5.03
2019-06-07T12:02:40.432Z,4.80
2019-06-07T12:05:12.632Z,4.80
2019-06-07T12:07:40.059Z,4.00
2019-06-07T12:10:10.589Z,4.57
2019-06-07T12:12:39.479Z,4.10
2019-06-07T12:15:10.937Z,4.40
2019-06-07T12:17:39.713Z,4.43
2019-06-07T12:20:10.774Z,4.73
2019-06-07T12:22:39.499Z,7.20
2019-06-07T12:25:08.386Z,4.93
2019-06-07T12:27:36.946Z,4.47
2019-06-07T12:30:11.113Z,4.90
2019-06-07T12:32:36.289Z,4.60
2019-06-07T12:35:06.359Z,4.37
2019-06-07T12:37:43.774Z,4.67
2019-06-07T12:40:05.911Z,4.30
2019-06-07T12:42:34.496Z,4.60
2019-06-07T12:45:03.756Z,4.43
2019-06-07T12:47:33.126Z,4.37
2019-06-07T12:50:01.817Z,3.83
2019-06-07T12:52:30.770Z,4.90
2019-06-07T12:54:59.417Z,4.33
2019-06-07T12:57:28.103Z,4.43
2019-06-07T12:59:57.410Z,3.93
2019-06-07T13:02:25.987Z,6.80
2019-06-07T13:04:54.698Z,5.10
2019-06-07T13:07:24.289Z,5.77
2019-06-07T13:09:53.102Z,4.70
2019-06-07T13:12:21.883Z,4.87
2019-06-07T13:14:50.414Z,10.67
2019-06-07T13:17:20.344Z,5.53
2019-06-07T13:19:49.194Z,5.77
2019-06-07T13:22:18.299Z,4.50
2019-06-07T13:24:47.049Z,5.73
2019-06-07T13:27:16.215Z,7.07
2019-06-07T13:29:44.885Z,6.03
2019-06-07T13:32:13.557Z,5.13
2019-06-07T13:34:42.198Z,5.80
2019-06-07T13:37:10.756Z,5.00
2019-06-07T13:39:39.116Z,6.73
2019-06-07T13:42:07.982Z,6.57
2019-06-07T13:44:36.546Z,7.07
2019-06-07T13:47:05.244Z,5.87
2019-06-07T13:49:33.930Z,5.90
2019-06-07T13:52:02.567Z,4.53
2019-06-07T13:54:31.067Z,4.80
2019-06-07T13:57:02.808Z,4.50
2019-06-07T13:59:30.150Z,3.77
2019-06-07T14:01:58.778Z,4.80
2019-06-07T14:04:27.320Z,4.87
2019-06-07T14:06:56.060Z,5.27
2019-06-07T14:09:25.246Z,4.67
2019-06-07T14:11:53.936Z,7.43
2019-06-07T14:14:24.565Z,5.17
2019-06-07T14:16:53.393Z,6.73
2019-06-07T14:19:22.660Z,6.40
2019-06-07T14:21:51.597Z,6.13
2019-06-07T14:24:20.987Z,6.30
2019-06-07T14:27:09.188Z,4.63
2019-06-07T14:29:37.902Z,4.63
2019-06-07T14:32:07.166Z,5.27
2019-06-07T14:34:36.225Z,5.43
2019-06-07T14:37:05.360Z,5.80
2019-06-07T14:39:33.857Z,5.20
2019-06-07T14:42:09.045Z,4.60
2019-06-07T14:44:34.009Z,7.53
2019-06-07T14:47:02.866Z,5.30
2019-06-07T14:49:32.690Z,5.13
2019-06-07T14:52:01.550Z,4.90
2019-06-07T14:54:33.489Z,4.63
2019-06-07T14:57:03.305Z,5.30
2019-06-07T14:59:32.728Z,4.90
2019-06-07T15:02:01.692Z,4.87
2019-06-07T15:04:30.771Z,5.07
2019-06-07T15:06:59.607Z,4.57
2019-06-07T15:09:29.073Z,4.37
2019-06-07T15:11:57.682Z,4.40
2019-06-07T15:14:27.309Z,5.17
2019-06-07T15:16:55.958Z,5.57
2019-06-07T15:19:24.657Z,4.80
2019-06-07T15:21:53.265Z,4.60
2019-06-07T15:24:21.828Z,4.30
2019-06-07T15:26:50.489Z,5.53
2019-06-07T15:29:19.163Z,4.70
2019-06-07T15:31:47.754Z,6.63
2019-06-07T15:34:16.462Z,4.73
2019-06-07T15:36:45.128Z,6.37
2019-06-07T15:39:13.624Z,4.40
2019-06-07T15:41:42.123Z,4.47
2019-06-07T15:44:10.969Z,8.27
2019-06-07T15:46:40.346Z,5.60
2019-06-07T15:49:09.193Z,5.93
2019-06-07T15:51:38.644Z,8.67
2019-06-07T15:54:07.933Z,5.60
2019-06-07T15:56:37.009Z,6.03
2019-06-07T15:59:05.685Z,5.43
2019-06-07T16:01:35.576Z,6.67
2019-06-07T16:04:04.648Z,6.73
2019-06-07T16:06:34.296Z,5.47
2019-06-07T16:09:04.605Z,5.40
2019-06-07T16:11:34.565Z,6.47
2019-06-07T16:14:06.294Z,8.20
2019-06-07T16:16:35.069Z,8.27
2019-06-07T16:19:03.925Z,6.57
2019-06-07T16:21:33.291Z,5.17
2019-06-07T16:24:02.110Z,5.13
2019-06-07T16:26:30.596Z,4.77
2019-06-07T16:28:59.404Z,6.17
2019-06-07T16:31:27.916Z,7.03
2019-06-07T16:33:56.486Z,7.20
2019-06-07T16:36:25.001Z,8.10
2019-06-07T16:38:53.608Z,6.93
2019-06-07T16:41:23.072Z,7.50
2019-06-07T16:43:51.593Z,5.40
2019-06-07T16:46:21.368Z,5.87
2019-06-07T16:48:50.371Z,8.43
2019-06-07T16:51:18.995Z,6.77
2019-06-07T16:53:48.586Z,5.77
2019-06-07T16:56:17.281Z,6.57
2019-06-07T16:58:46.519Z,6.43
2019-06-07T17:01:15.629Z,5.97
2019-06-07T17:03:45.577Z,6.07
2019-06-07T17:06:14.307Z,7.30
2019-06-07T17:08:44.270Z,7.37
2019-06-07T17:11:12.976Z,7.23
2019-06-07T17:13:42.338Z,6.80
2019-06-07T17:16:11.125Z,10.17
2019-06-07T17:18:40.870Z,7.40
2019-06-07T17:21:09.620Z,7.60
2019-06-07T17:23:39.169Z,8.67
2019-06-07T17:26:08.080Z,8.30
2019-06-07T17:28:36.641Z,8.10
2019-06-07T17:31:05.123Z,6.40
2019-06-07T17:33:33.735Z,8.23
2019-06-07T17:36:02.206Z,8.63
2019-06-07T17:38:30.784Z,8.10
2019-06-07T17:40:59.352Z,8.67
2019-06-07T17:43:27.783Z,13.40
2019-06-07T17:45:56.474Z,8.00
2019-06-07T17:48:25.045Z,8.23
2019-06-07T17:50:53.703Z,8.73
2019-06-07T17:53:22.248Z,9.03
2019-06-07T17:55:50.839Z,7.73
2019-06-07T17:58:19.716Z,8.67
2019-06-07T18:00:51.085Z,6.97
2019-06-07T18:03:19.957Z,7.50
2019-06-07T18:05:49.276Z,7.80
2019-06-07T18:08:17.982Z,9.00
2019-06-07T18:10:47.854Z,7.40
2019-06-07T18:13:16.567Z,11.33
2019-06-07T18:15:46.482Z,8.77
2019-06-07T18:18:16.440Z,7.83
2019-06-07T18:20:45.226Z,9.73
2019-06-07T18:23:13.772Z,9.93
2019-06-07T18:25:42.285Z,9.70
2019-06-07T18:28:10.971Z,8.67
2019-06-07T18:30:39.460Z,12.17
2019-06-07T18:33:08.121Z,12.00
2019-06-07T18:35:37.004Z,16.27
2019-06-07T18:38:05.490Z,16.67
2019-06-07T18:40:34.133Z,13.27
2019-06-07T18:43:03.015Z,13.30
2019-06-07T18:45:31.580Z,11.00
2019-06-07T18:48:00.172Z,9.50
2019-06-07T18:50:28.764Z,9.57
2019-06-07T18:52:59.021Z,10.30
2019-06-07T18:55:27.842Z,12.83
2019-06-07T18:57:56.632Z,10.40
2019-06-07T19:00:25.810Z,11.53
2019-06-07T19:02:55.992Z,10.43
2019-06-07T19:05:25.593Z,9.27
2019-06-07T19:07:54.688Z,12.67
2019-06-07T19:10:23.796Z,8.00
2019-06-07T19:12:53.119Z,13.33
2019-06-07T19:15:23.993Z,11.87
2019-06-07T19:17:53.899Z,11.50
2019-06-07T19:20:23.290Z,9.47
2019-06-07T19:22:52.098Z,9.67
2019-06-07T19:25:21.178Z,11.07
2019-06-07T19:27:50.635Z,14.40
2019-06-07T19:30:19.360Z,14.97
2019-06-07T19:32:49.732Z,15.50
2019-06-07T19:35:18.422Z,14.40
2019-06-07T19:37:48.056Z,13.83
2019-06-07T19:40:18.302Z,14.80
2019-06-07T19:42:47.132Z,13.63
2019-06-07T19:45:29.855Z,10.37
2019-06-07T19:47:46.754Z,10.77
2019-06-07T19:50:17.476Z,10.57
2019-06-07T19:52:46.782Z,11.30
2019-06-07T19:55:16.051Z,10.30
2019-06-07T19:57:44.743Z,9.63
2019-06-07T20:00:14.669Z,10.00
2019-06-07T20:02:44.409Z,10.60
2019-06-07T20:05:15.189Z,9.10
2019-06-07T20:07:43.819Z,11.10
2019-06-07T20:10:12.799Z,11.50
2019-06-07T20:12:41.381Z,9.73
2019-06-07T20:15:27.138Z,7.50
2019-06-07T20:17:40.487Z,7.70
2019-06-07T20:20:09.394Z,7.80
2019-06-07T20:22:37.904Z,7.80
2019-06-07T20:25:07.025Z,6.80
2019-06-07T20:27:36.119Z,9.93
2019-06-07T20:30:06.108Z,8.43
2019-06-07T20:32:35.015Z,8.93
2019-06-07T20:35:04.093Z,7.17
2019-06-07T20:37:32.612Z,7.67
2019-06-07T20:40:12.970Z,7.20
2019-06-07T20:42:32.380Z,7.97
2019-06-07T20:45:02.092Z,8.03
2019-06-07T20:47:30.858Z,6.77
2019-06-07T20:50:00.055Z,9.40
2019-06-07T20:52:28.837Z,6.17
2019-06-07T20:54:58.427Z,6.27
2019-06-07T20:57:27.118Z,5.47
2019-06-07T20:59:55.603Z,5.97
2019-06-07T21:02:23.970Z,6.30
2019-06-07T21:04:52.383Z,5.97
2019-06-07T21:07:20.862Z,5.97
2019-06-07T21:09:49.388Z,5.40
2019-06-07T21:12:17.871Z,5.87
2019-06-07T21:14:46.650Z,6.50
2019-06-07T21:17:15.124Z,8.33
2019-06-07T21:19:43.720Z,7.17
2019-06-07T21:22:12.260Z,6.53
2019-06-07T21:24:40.631Z,8.87
2019-06-07T21:27:09.538Z,8.20
2019-06-07T21:29:38.124Z,6.30
2019-06-07T21:32:07.526Z,7.27
2019-06-07T21:34:36.293Z,5.23
2019-06-07T21:37:05.656Z,6.43
2019-06-07T21:39:34.198Z,6.23
2019-06-07T21:42:04.084Z,6.00
2019-06-07T21:44:32.985Z,6.00
2019-06-07T21:47:02.088Z,6.27
2019-06-07T21:49:30.932Z,6.10
2019-06-07T21:51:59.432Z,7.70
2019-06-07T21:54:28.353Z,5.60
2019-06-07T21:56:56.842Z,5.87
2019-06-07T21:59:25.345Z,7.63
2019-06-07T22:01:53.766Z,7.00
2019-06-07T22:04:22.356Z,6.33
2019-06-07T22:06:51.245Z,6.23
2019-06-07T22:09:19.958Z,5.13
2019-06-07T22:11:48.572Z,5.97
2019-06-07T22:14:16.919Z,5.83
2019-06-07T22:16:45.449Z,6.07
2019-06-07T22:19:14.941Z,8.47
2019-06-07T22:21:43.474Z,5.87
2019-06-07T22:24:13.051Z,5.33
2019-06-07T22:26:41.778Z,7.50
2019-06-07T22:29:10.363Z,5.93
2019-06-07T22:31:38.818Z,6.20
2019-06-07T22:34:08.654Z,5.73
2019-06-07T22:36:37.324Z,5.97
2019-06-07T22:39:07.528Z,5.87
2019-06-07T22:41:36.117Z,6.57
2019-06-07T22:44:04.600Z,5.23
2019-06-07T22:46:37.463Z,7.13
2019-06-07T22:49:03.497Z,7.50
2019-06-07T22:51:32.070Z,5.67
2019-06-07T22:54:00.098Z,6.07
2019-06-07T22:56:42.774Z,5.67
2019-06-07T22:59:14.106Z,5.00
2019-06-07T23:01:41.618Z,5.67
2019-06-07T23:04:10.468Z,5.60
2019-06-07T23:06:39.097Z,5.97
2019-06-07T23:09:08.799Z,7.67
2019-06-07T23:11:37.589Z,6.83
2019-06-07T23:14:06.163Z,7.23
2019-06-07T23:16:34.665Z,7.73
2019-06-07T23:19:03.366Z,7.13
2019-06-07T23:21:31.862Z,7.53
2019-06-07T23:24:00.458Z,6.43
2019-06-07T23:26:28.958Z,6.60
2019-06-07T23:28:57.561Z,6.37
2019-06-07T23:31:26.106Z,6.30
2019-06-07T23:33:54.572Z,6.30
2019-06-07T23:36:23.046Z,6.20
2019-06-07T23:38:51.682Z,6.70
2019-06-07T23:41:20.470Z,7.43
2019-06-07T23:43:50.342Z,7.60
2019-06-07T23:46:19.469Z,6.50
2019-06-07T23:48:48.011Z,5.73
2019-06-07T23:51:17.693Z,6.83
2019-06-07T23:53:46.489Z,8.20
2019-06-07T23:56:15.900Z,7.70
2019-06-07T23:58:44.455Z,8.90
